createdAt,value
2023-01-12T00:04:20.036Z,84.50
2023-01-12T00:09:21.895Z,84.25
2023-01-12T00:14:23.292Z,83.69
2023-01-12T00:19:24.957Z,83.75
2023-01-12T00:24:29.064Z,84.07
2023-01-12T00:29:31.171Z,83.64
2023-01-12T00:34:32.614Z,83.12
2023-01-12T00:39:40.349Z,83.46
2023-01-12T00:45:00.997Z,83.62
2023-01-12T00:50:02.376Z,84.03
2023-01-12T00:55:04.060Z,83.84
2023-01-12T01:00:06.131Z,83.22
2023-01-12T01:05:07.876Z,83.52
2023-01-12T01:10:11.047Z,83.35
2023-01-12T01:15:12.813Z,83.60
2023-01-12T01:20:14.230Z,83.95
2023-01-12T01:25:15.671Z,83.75
2023-01-12T01:30:17.126Z,83.78
2023-01-12T01:35:18.525Z,83.22
2023-01-12T01:40:19.971Z,83.21
2023-01-12T01:45:21.484Z,83.26
2023-01-12T01:50:28.682Z,83.27
2023-01-12T01:55:37.075Z,82.69
2023-01-12T02:00:40.292Z,82.75
2023-01-12T02:05:45.413Z,82.14
2023-01-12T02:10:46.804Z,81.99
2023-01-12T02:16:23.181Z,82.38
2023-01-12T02:21:24.552Z,82.94
2023-01-12T02:26:55.284Z,83.05
2023-01-12T02:32:16.116Z,82.23
2023-01-12T02:37:38.621Z,82.48
2023-01-12T02:43:03.249Z,81.69
2023-01-12T02:48:16.729Z,81.44
2023-01-12T02:53:29.591Z,81.60
2023-01-12T02:58:35.712Z,81.94
2023-01-12T03:03:39.696Z,81.97
2023-01-12T03:08:41.146Z,81.29
2023-01-12T03:13:52.085Z,81.80
2023-01-12T03:18:58.773Z,81.40
2023-01-12T03:24:05.107Z,81.32
2023-01-12T03:29:15.630Z,81.23
2023-01-12T03:34:17.115Z,81.17
2023-01-12T03:40:01.905Z,81.53
2023-01-12T03:45:48.375Z,81.80
2023-01-12T03:51:00.484Z,81.87
2023-01-12T03:56:06.635Z,81.92
2023-01-12T04:01:08.505Z,81.60
2023-01-12T04:06:10.255Z,81.61
2023-01-12T04:11:30.403Z,81.64
2023-01-12T04:16:31.761Z,81.11
2023-01-12T04:21:52.304Z,81.27
2023-01-12T04:26:53.722Z,81.09
2023-01-12T04:31:55.125Z,81.04
2023-01-12T04:36:56.578Z,81.14
2023-01-12T04:41:58.007Z,80.67
2023-01-12T04:46:59.543Z,80.94
2023-01-12T04:52:00.933Z,80.86
2023-01-12T04:57:02.300Z,80.67
2023-01-12T05:02:03.824Z,80.60
2023-01-12T05:07:05.247Z,80.47
2023-01-12T05:12:06.614Z,80.39
2023-01-12T05:17:08.003Z,80.46
2023-01-12T05:22:09.387Z,80.48
2023-01-12T05:27:10.694Z,80.44
2023-01-12T05:32:12.071Z,80.58
2023-01-12T05:37:13.439Z,80.81
2023-01-12T05:42:33.550Z,80.68
2023-01-12T05:47:35.004Z,81.03
2023-01-12T05:52:36.557Z,80.66
2023-01-12T05:57:37.858Z,80.71
2023-01-12T06:02:39.286Z,80.73
2023-01-12T06:07:40.673Z,80.58
2023-01-12T06:13:00.622Z,81.08
2023-01-12T06:18:02.014Z,82.22
2023-01-12T06:23:04.961Z,83.06
2023-01-12T06:28:06.439Z,84.72
2023-01-12T06:33:07.843Z,85.45
2023-01-12T06:38:09.151Z,87.72
2023-01-12T06:43:10.744Z,87.90
2023-01-12T06:48:12.270Z,87.83
2023-01-12T06:53:13.735Z,87.12
2023-01-12T06:58:15.129Z,87.88
2023-01-12T07:03:18.073Z,88.29
2023-01-12T07:08:19.450Z,88.38
2023-01-12T07:13:21.859Z,89.07
2023-01-12T07:18:23.311Z,89.33
2023-01-12T07:23:24.943Z,90.50
2023-01-12T07:28:26.547Z,90.57
2023-01-12T07:33:28.058Z,90.76
2023-01-12T07:38:31.254Z,91.54
2023-01-12T07:43:33.568Z,91.07
2023-01-12T07:48:35.789Z,91.74
2023-01-12T07:53:37.172Z,92.62
2023-01-12T07:58:38.659Z,92.80
2023-01-12T08:03:40.269Z,93.15
2023-01-12T08:08:41.636Z,93.29
2023-01-12T08:13:43.067Z,95.60
2023-01-12T08:18:53.671Z,96.97
2023-01-12T08:23:58.874Z,98.60
2023-01-12T08:29:13.170Z,99.07
2023-01-12T08:34:15.249Z,100.00
2023-01-12T08:39:16.646Z,100.00
2023-01-12T08:44:18.866Z,100.00
2023-01-12T08:49:27.058Z,100.00
2023-01-12T08:54:28.468Z,100.00
2023-01-12T08:59:31.928Z,100.00
2023-01-12T09:04:33.250Z,100.00
2023-01-12T09:09:35.028Z,100.00
2023-01-12T09:14:38.566Z,100.00
2023-01-12T09:19:40.018Z,100.00
2023-01-12T09:24:41.777Z,100.00
2023-01-12T09:29:43.301Z,100.00
2023-01-12T09:34:44.918Z,100.00
2023-01-12T09:39:46.517Z,100.00
2023-01-12T09:45:09.969Z,100.00
2023-01-12T09:50:24.890Z,100.00
2023-01-12T09:55:29.706Z,100.00
2023-01-12T10:00:32.305Z,100.00
2023-01-12T10:05:48.867Z,100.00
2023-01-12T10:11:24.641Z,100.00
2023-01-12T10:16:49.951Z,100.00
2023-01-12T10:21:53.372Z,100.00
2023-01-12T10:27:02.408Z,100.00
2023-01-12T10:32:03.905Z,100.00
2023-01-12T10:37:10.437Z,100.00
2023-01-12T10:42:41.225Z,100.00
2023-01-12T10:47:44.449Z,100.00
2023-01-12T10:52:46.608Z,100.00
2023-01-12T10:57:49.365Z,100.00
2023-01-12T11:02:51.390Z,100.00
2023-01-12T11:07:52.809Z,100.00
2023-01-12T11:13:03.526Z,100.00
2023-01-12T11:18:24.135Z,100.00
2023-01-12T11:23:41.645Z,100.00
2023-01-12T11:28:48.203Z,100.00
2023-01-12T11:33:57.810Z,100.00
2023-01-12T11:39:05.283Z,100.00
2023-01-12T11:44:23.725Z,100.00
2023-01-12T11:49:46.937Z,100.00
2023-01-12T11:54:48.250Z,100.00
2023-01-12T12:00:19.396Z,100.00
2023-01-12T12:05:43.152Z,100.00
2023-01-12T12:11:07.272Z,100.00
2023-01-12T12:16:39.778Z,100.00
2023-01-12T12:21:50.709Z,100.00
2023-01-12T12:27:19.805Z,100.00
2023-01-12T12:32:44.228Z,100.00
2023-01-12T12:37:51.965Z,100.00
2023-01-12T12:43:15.138Z,100.00
2023-01-12T12:48:42.604Z,100.00
2023-01-12T12:53:47.338Z,100.00
2023-01-12T12:58:49.553Z,100.00
2023-01-12T13:04:02.270Z,100.00
2023-01-12T13:09:12.455Z,100.00
2023-01-12T13:14:21.138Z,100.00
2023-01-12T13:19:41.092Z,100.00
2023-01-12T13:24:42.769Z,100.00
2023-01-12T13:29:47.016Z,100.00
2023-01-12T13:34:49.395Z,100.00
2023-01-12T13:40:00.180Z,100.00
2023-01-12T13:45:02.533Z,100.00
2023-01-12T13:50:04.461Z,100.00
2023-01-12T13:55:22.477Z,100.00
2023-01-12T14:00:24.488Z,100.00
2023-01-12T14:06:05.182Z,100.00
2023-01-12T14:11:21.709Z,100.00
2023-01-12T14:16:42.480Z,100.00
2023-01-12T14:22:04.854Z,100.00
2023-01-12T14:27:23.219Z,100.00
2023-01-12T14:32:25.479Z,99.60
2023-01-12T14:37:31.345Z,100.00
2023-01-12T14:42:51.509Z,98.72
2023-01-12T14:47:52.873Z,99.22
2023-01-12T14:52:54.333Z,99.07
2023-01-12T14:58:04.952Z,98.66
2023-01-12T15:03:21.273Z,97.45
2023-01-12T15:08:30.604Z,96.82
2023-01-12T15:13:34.029Z,96.76
2023-01-12T15:18:54.323Z,96.71
2023-01-12T15:24:14.925Z,95.77
2023-01-12T15:29:16.276Z,95.78
2023-01-12T15:34:17.877Z,95.66
2023-01-12T15:39:19.295Z,95.18
2023-01-12T15:44:21.855Z,95.09
2023-01-12T15:49:23.211Z,94.79
2023-01-12T15:54:27.509Z,94.71
2023-01-12T15:59:28.816Z,95.58
2023-01-12T16:04:45.797Z,95.17
2023-01-12T16:09:47.953Z,95.09
2023-01-12T16:14:49.679Z,94.75
2023-01-12T16:19:51.203Z,94.18
2023-01-12T16:24:54.940Z,93.93
2023-01-12T16:29:56.666Z,94.00
2023-01-12T16:34:58.107Z,93.88
2023-01-12T16:40:00.286Z,93.76
2023-01-12T16:45:01.744Z,92.62
2023-01-12T16:50:03.317Z,92.81
2023-01-12T16:55:05.045Z,92.78
2023-01-12T17:00:07.644Z,92.77
2023-01-12T17:05:10.197Z,92.75
2023-01-12T17:10:12.064Z,92.85
2023-01-12T17:15:13.574Z,92.53
2023-01-12T17:20:15.615Z,92.26
2023-01-12T17:25:17.543Z,91.97
2023-01-12T17:30:20.746Z,91.65
2023-01-12T17:35:22.402Z,92.06
2023-01-12T17:40:23.717Z,92.87
2023-01-12T17:45:25.062Z,92.74
2023-01-12T17:50:26.461Z,94.03
2023-01-12T17:55:27.924Z,96.01
2023-01-12T18:00:29.653Z,97.35
2023-01-12T18:05:31.347Z,96.71
2023-01-12T18:10:32.882Z,96.64
2023-01-12T18:15:34.315Z,95.77
2023-01-12T18:20:35.736Z,95.69
2023-01-12T18:25:37.404Z,93.97
2023-01-12T18:30:38.835Z,93.53
2023-01-12T18:35:40.208Z,93.18
2023-01-12T18:40:41.626Z,92.90
2023-01-12T18:45:42.966Z,93.30
2023-01-12T18:51:02.866Z,93.08
2023-01-12T18:56:05.851Z,92.63
2023-01-12T19:01:18.116Z,91.78
2023-01-12T19:06:27.595Z,91.70
2023-01-12T19:11:29.033Z,90.51
2023-01-12T19:16:48.975Z,90.68
2023-01-12T19:22:08.854Z,90.38
2023-01-12T19:27:31.417Z,89.96
2023-01-12T19:32:32.870Z,89.51
2023-01-12T19:37:34.522Z,89.07
2023-01-12T19:42:54.467Z,89.42
2023-01-12T19:47:55.885Z,89.12
2023-01-12T19:52:57.373Z,88.84
2023-01-12T19:57:59.650Z,88.64
2023-01-12T20:03:01.133Z,89.75
2023-01-12T20:08:02.635Z,88.53
2023-01-12T20:13:05.227Z,87.79
2023-01-12T20:18:08.682Z,88.23
2023-01-12T20:23:12.462Z,88.42
2023-01-12T20:28:14.427Z,88.37
2023-01-12T20:33:15.976Z,89.01
2023-01-12T20:38:19.046Z,89.08
2023-01-12T20:43:20.597Z,89.47
2023-01-12T20:48:21.944Z,89.70
2023-01-12T20:53:26.791Z,91.92
2023-01-12T20:58:28.155Z,93.53
2023-01-12T21:03:29.606Z,93.43
2023-01-12T21:08:30.966Z,94.94
2023-01-12T21:13:32.459Z,95.81
2023-01-12T21:18:35.034Z,95.31
2023-01-12T21:23:36.525Z,95.64
2023-01-12T21:28:40.310Z,95.20
2023-01-12T21:33:41.767Z,95.63
2023-01-12T21:38:43.695Z,96.71
2023-01-12T21:43:49.561Z,96.80
2023-01-12T21:48:50.984Z,95.93
2023-01-12T21:53:52.385Z,96.65
2023-01-12T21:58:53.731Z,96.69
2023-01-12T22:03:56.817Z,97.74
2023-01-12T22:08:58.795Z,98.76
2023-01-12T22:14:00.815Z,97.96
2023-01-12T22:19:03.697Z,99.01
2023-01-12T22:24:05.500Z,99.40
2023-01-12T22:29:06.897Z,98.95
2023-01-12T22:34:09.095Z,98.05
2023-01-12T22:39:13.843Z,97.83
2023-01-12T22:44:15.358Z,97.38
2023-01-12T22:49:17.099Z,97.03
2023-01-12T22:54:19.088Z,96.89
2023-01-12T22:59:20.829Z,96.56
2023-01-12T23:04:22.303Z,95.66
2023-01-12T23:09:24.171Z,95.03
2023-01-12T23:14:25.671Z,94.71
2023-01-12T23:19:27.030Z,94.21
2023-01-12T23:24:28.494Z,93.13
2023-01-12T23:29:30.338Z,93.69
2023-01-12T23:34:31.674Z,93.23
2023-01-12T23:39:33.112Z,93.45
2023-01-12T23:44:34.494Z,93.78
2023-01-12T23:49:35.799Z,94.53
2023-01-12T23:54:38.714Z,94.75
2023-01-12T23:59:40.285Z,94.20
